Observation data for Denver City on 08/06/2020      Previous  Date  Next       Current Mesonet Observations  Soil Data  Daily Summary Page  Observations in Plain Language
KDVS 060500Z 23013G19KT 31/09 A2999 RMK A01 T03050085  RH  026%=      5-min Rain = 0
KDVS 060505Z 23013KT 31/08 A2999 RMK A01 T03090084  RH  025%=      5-min Rain = 0
KDVS 060510Z 24015KT 31/09 A30 RMK A01 T03060090  RH  027%=      5-min Rain = 0
KDVS 060515Z 24012KT 30/10 A30 RMK A01 T03010095  RH  029%=      5-min Rain = 0
KDVS 060520Z 26013KT 30/10 A30 RMK A01 T02970097  RH  030%=      5-min Rain = 0
KDVS 060525Z 25014KT 30/10 A30 RMK A01 T02950097  RH  030%=      5-min Rain = 0
KDVS 060530Z 26013KT 29/10 A3001 RMK A01 T02930099  RH  031%=      5-min Rain = 0
KDVS 060535Z 28012KT 29/10 A3001 RMK A01 T02900102  RH  032%=      5-min Rain = 0
KDVS 060540Z 29011KT 29/11 A3001 RMK A01 T02870109  RH  034%=      5-min Rain = 0
KDVS 060545Z 29011KT 28/12 A30 RMK A01 T02830116  RH  037%=      5-min Rain = 0
KDVS 060550Z 29010KT 28/12 A30 RMK A01 T02820117  RH  037%=      5-min Rain = 0
KDVS 060555Z 28010KT 28/12 A30 RMK A01 T02820117  RH  037%=      5-min Rain = 0
KDVS 060600Z 29009KT 28/12 A30 RMK A01 T02810116  RH  037%=      5-min Rain = 0
KDVS 060605Z 28009KT 28/12 A30 RMK A01 T02810115  RH  037%=      5-min Rain = 0
KDVS 060610Z 26007KT 28/11 A3001 RMK A01 T02800114  RH  037%=      5-min Rain = 0
KDVS 060615Z 26007KT 28/11 A3001 RMK A01 T02820111  RH  036%=      5-min Rain = 0
KDVS 060620Z 17008G14KT 28/11 A3002 RMK A01 T02810113  RH  037%=      5-min Rain = 0
KDVS 060625Z 19012G17KT 28/12 A3003 RMK A01 T02780115  RH  038%=      5-min Rain = 0
KDVS 060630Z 20011KT 28/12 A3003 RMK A01 T02830115  RH  037%=      5-min Rain = 0
KDVS 060635Z 22009KT 28/12 A3003 RMK A01 T02800119  RH  038%=      5-min Rain = 0
KDVS 060640Z 21007KT 28/12 A3003 RMK A01 T02770121  RH  039%=      5-min Rain = 0
KDVS 060645Z 21006KT 28/12 A3003 RMK A01 T02750124  RH  041%=      5-min Rain = 0
KDVS 060650Z 20006KT 27/13 A3003 RMK A01 T02720125  RH  042%=      5-min Rain = 0
KDVS 060655Z 19007KT 27/13 A3002 RMK A01 T02710125  RH  042%=      5-min Rain = 0
KDVS 060700Z 18006KT 27/12 A3002 RMK A01 T02700123  RH  042%=      5-min Rain = 0
KDVS 060705Z 17006KT 27/12 A3002 RMK A01 T02660122  RH  042%=      5-min Rain = 0
KDVS 060710Z 17006KT 26/12 A3002 RMK A01 T02640121  RH  043%=      5-min Rain = 0
KDVS 060715Z 17006KT 27/12 A3002 RMK A01 T02660120  RH  042%=      5-min Rain = 0
KDVS 060720Z 17006KT 27/12 A3002 RMK A01 T02650121  RH  042%=      5-min Rain = 0
KDVS 060725Z 17006KT 26/12 A3002 RMK A01 T02620123  RH  044%=      5-min Rain = 0
KDVS 060730Z 17006KT 26/12 A3002 RMK A01 T02590124  RH  045%=      5-min Rain = 0
KDVS 060735Z 17006KT 26/13 A3002 RMK A01 T02570125  RH  045%=      5-min Rain = 0
KDVS 060740Z 16006KT 25/13 A3002 RMK A01 T02540125  RH  046%=      5-min Rain = 0
KDVS 060745Z 16007KT 25/13 A3002 RMK A01 T02520126  RH  047%=      5-min Rain = 0
KDVS 060750Z 17007KT 25/13 A3002 RMK A01 T02530125  RH  047%=      5-min Rain = 0
KDVS 060755Z 17007KT 25/13 A3002 RMK A01 T02530125  RH  047%=      5-min Rain = 0
KDVS 060800Z 17006KT 25/13 A3002 RMK A01 T02530125  RH  047%=      5-min Rain = 0
KDVS 060805Z 17006KT 25/13 A3002 RMK A01 T02510125  RH  047%=      5-min Rain = 0
KDVS 060810Z 17006KT 25/13 A3003 RMK A01 T02500125  RH  048%=      5-min Rain = 0
KDVS 060815Z 17006KT 25/13 A3002 RMK A01 T02510126  RH  048%=      5-min Rain = 0
KDVS 060820Z 17007KT 25/13 A3002 RMK A01 T02510127  RH  048%=      5-min Rain = 0
KDVS 060825Z 17007KT 25/13 A3003 RMK A01 T02510128  RH  048%=      5-min Rain = 0
KDVS 060830Z 18007KT 25/13 A3002 RMK A01 T02510129  RH  049%=      5-min Rain = 0
KDVS 060835Z 18006KT 25/13 A3002 RMK A01 T02490130  RH  049%=      5-min Rain = 0
KDVS 060840Z 18006KT 25/13 A3002 RMK A01 T02480131  RH  050%=      5-min Rain = 0
KDVS 060845Z 18005KT 25/13 A3002 RMK A01 T02470132  RH  051%=      5-min Rain = 0
KDVS 060850Z 18005KT 25/13 A3002 RMK A01 T02450134  RH  052%=      5-min Rain = 0
KDVS 060855Z 19005KT 24/14 A3003 RMK A01 T02430135  RH  053%=      5-min Rain = 0
KDVS 060900Z 19006KT 24/14 A3003 RMK A01 T02420135  RH  053%=      5-min Rain = 0
KDVS 060905Z 19006KT 24/14 A3003 RMK A01 T02410136  RH  054%=      5-min Rain = 0
KDVS 060910Z 19006KT 24/14 A3003 RMK A01 T02400136  RH  054%=      5-min Rain = 0
KDVS 060915Z 19006KT 24/14 A3003 RMK A01 T02400136  RH  054%=      5-min Rain = 0
KDVS 060920Z 19006KT 24/14 A3003 RMK A01 T02400136  RH  054%=      5-min Rain = 0
KDVS 060925Z 20005KT 24/14 A3003 RMK A01 T02390136  RH  055%=      5-min Rain = 0
KDVS 060930Z 20005KT 24/14 A3003 RMK A01 T02380137  RH  055%=      5-min Rain = 0
KDVS 060935Z 20006KT 24/14 A3003 RMK A01 T02360137  RH  056%=      5-min Rain = 0
KDVS 060940Z 19006KT 24/14 A3003 RMK A01 T02360138  RH  056%=      5-min Rain = 0
KDVS 060945Z 19007KT 24/14 A3003 RMK A01 T02360137  RH  056%=      5-min Rain = 0
KDVS 060950Z 18007KT 24/14 A3003 RMK A01 T02350137  RH  056%=      5-min Rain = 0
KDVS 060955Z 18007KT 23/14 A3003 RMK A01 T02330137  RH  057%=      5-min Rain = 0
KDVS 061000Z 18006KT 23/14 A3003 RMK A01 T02300138  RH  058%=      5-min Rain = 0
KDVS 061005Z 18006KT 23/14 A3003 RMK A01 T02300139  RH  059%=      5-min Rain = 0
KDVS 061010Z 18006KT 23/14 A3003 RMK A01 T02280139  RH  060%=      5-min Rain = 0
KDVS 061015Z 18007KT 23/14 A3003 RMK A01 T02250140  RH  061%=      5-min Rain = 0
KDVS 061020Z 18007KT 22/14 A3003 RMK A01 T02230140  RH  062%=      5-min Rain = 0
KDVS 061025Z 19008KT 23/14 A3003 RMK A01 T02250140  RH  061%=      5-min Rain = 0
KDVS 061030Z 19008KT 23/14 A3003 RMK A01 T02250140  RH  061%=      5-min Rain = 0
KDVS 061035Z 18007KT 22/14 A3003 RMK A01 T02230141  RH  062%=      5-min Rain = 0
KDVS 061040Z 18006KT 22/14 A3003 RMK A01 T02210141  RH  063%=      5-min Rain = 0
KDVS 061045Z 18005KT 22/14 A3003 RMK A01 T02200141  RH  064%=      5-min Rain = 0
KDVS 061050Z 18005KT 22/14 A3003 RMK A01 T02190142  RH  064%=      5-min Rain = 0
KDVS 061055Z 18005KT 22/14 A3003 RMK A01 T02200142  RH  064%=      5-min Rain = 0
KDVS 061100Z 18005KT 22/14 A3003 RMK A01 T02210142  RH  064%=      5-min Rain = 0
KDVS 061105Z 17005KT 22/14 A3003 RMK A01 T02200142  RH  064%=      5-min Rain = 0
KDVS 061110Z 18005KT 22/14 A3003 RMK A01 T02180142  RH  064%=      5-min Rain = 0
KDVS 061115Z 19005KT 22/14 A3004 RMK A01 T02180142  RH  065%=      5-min Rain = 0
KDVS 061120Z 18005KT 22/14 A3004 RMK A01 T02200143  RH  064%=      5-min Rain = 0
KDVS 061125Z 17005KT 22/14 A3004 RMK A01 T02200143  RH  065%=      5-min Rain = 0
KDVS 061130Z 17005KT 22/14 A3004 RMK A01 T02180143  RH  065%=      5-min Rain = 0
KDVS 061135Z 16005KT 21/14 A3004 RMK A01 T02140144  RH  067%=      5-min Rain = 0
KDVS 061140Z 17005KT 21/14 A3004 RMK A01 T02120144  RH  068%=      5-min Rain = 0
KDVS 061145Z 17005KT 21/14 A3004 RMK A01 T02140144  RH  067%=      5-min Rain = 0
KDVS 061150Z 17005KT 22/14 A3004 RMK A01 T02150143  RH  067%=      5-min Rain = 0
KDVS 061155Z 16005KT 22/14 A3004 RMK A01 T02150143  RH  067%=      5-min Rain = 0
KDVS 061200Z 16005KT 21/14 A3004 RMK A01 T02140144  RH  067%=      5-min Rain = 0
KDVS 061205Z 16005KT 21/14 A3005 RMK A01 T02140144  RH  068%=      5-min Rain = 0
KDVS 061210Z 17005KT 21/14 A3005 RMK A01 T02140144  RH  067%=      5-min Rain = 0
KDVS 061215Z 19004KT 22/14 A3005 RMK A01 T02160143  RH  066%=      5-min Rain = 0
KDVS 061220Z 21004KT 22/14 A3005 RMK A01 T02200144  RH  065%=      5-min Rain = 0
KDVS 061225Z 20004KT 22/15 A3005 RMK A01 T02190145  RH  066%=      5-min Rain = 0
KDVS 061230Z 21004KT 22/15 A3005 RMK A01 T02180146  RH  067%=      5-min Rain = 0
KDVS 061235Z 21004KT 22/15 A3005 RMK A01 T02200146  RH  066%=      5-min Rain = 0
KDVS 061240Z 20004KT 22/15 A3005 RMK A01 T02210146  RH  065%=      5-min Rain = 0
KDVS 061245Z 19003KT 22/15 A3005 RMK A01 T02220146  RH  065%=      5-min Rain = 0
KDVS 061250Z 19003KT 22/15 A3005 RMK A01 T02220145  RH  064%=      5-min Rain = 0
KDVS 061255Z 19002KT 22/15 A3005 RMK A01 T02230146  RH  065%=      5-min Rain = 0
KDVS 061300Z 18002KT 22/15 A3005 RMK A01 T02230146  RH  064%=      5-min Rain = 0
KDVS 061305Z 18003KT 22/15 A3005 RMK A01 T02240146  RH  064%=      5-min Rain = 0
KDVS 061310Z 18002KT 23/15 A3005 RMK A01 T02250147  RH  064%=      5-min Rain = 0
KDVS 061315Z 18003KT 23/15 A3005 RMK A01 T02250148  RH  065%=      5-min Rain = 0
KDVS 061320Z 17002KT 23/15 A3005 RMK A01 T02250149  RH  065%=      5-min Rain = 0
KDVS 061325Z 18002KT 23/15 A3005 RMK A01 T02260148  RH  064%=      5-min Rain = 0
KDVS 061330Z 18002KT 23/15 A3006 RMK A01 T02280150  RH  064%=      5-min Rain = 0
KDVS 061335Z 17003KT 23/15 A3006 RMK A01 T02290148  RH  063%=      5-min Rain = 0
KDVS 061340Z 18003KT 23/15 A3006 RMK A01 T02290148  RH  063%=      5-min Rain = 0
KDVS 061345Z 17004KT 23/15 A3006 RMK A01 T02310149  RH  063%=      5-min Rain = 0
KDVS 061350Z 17004KT 23/15 A3006 RMK A01 T02330149  RH  062%=      5-min Rain = 0
KDVS 061355Z 17005KT 24/15 A3006 RMK A01 T02350149  RH  061%=      5-min Rain = 0
KDVS 061400Z 17006KT 24/15 A3006 RMK A01 T02370148  RH  060%=      5-min Rain = 0
KDVS 061405Z 17006KT 24/15 A3006 RMK A01 T02380149  RH  060%=      5-min Rain = 0
KDVS 061410Z 17006KT 24/15 A3006 RMK A01 T02400149  RH  059%=      5-min Rain = 0
KDVS 061415Z 17007KT 24/15 A3006 RMK A01 T02440150  RH  058%=      5-min Rain = 0
KDVS 061420Z 17007KT 25/15 A3006 RMK A01 T02470151  RH  057%=      5-min Rain = 0
KDVS 061425Z 18007KT 25/15 A3006 RMK A01 T02510151  RH  056%=      5-min Rain = 0
KDVS 061430Z 17009KT 25/15 A3006 RMK A01 T02520151  RH  056%=      5-min Rain = 0
KDVS 061435Z 18010G15KT 25/15 A3006 RMK A01 T02530152  RH  056%=      5-min Rain = 0
KDVS 061440Z 18012G18KT 26/15 A3006 RMK A01 T02590153  RH  054%=      5-min Rain = 0
KDVS 061445Z 17012G18KT 26/15 A3006 RMK A01 T02600151  RH  053%=      5-min Rain = 0
KDVS 061450Z 18014G19KT 26/15 A3006 RMK A01 T02640152  RH  052%=      5-min Rain = 0
KDVS 061455Z 18014G19KT 26/15 A3006 RMK A01 T02630151  RH  052%=      5-min Rain = 0
KDVS 061500Z 18013KT 26/15 A3006 RMK A01 T02620151  RH  053%=      5-min Rain = 0
KDVS 061505Z 18012KT 26/15 A3006 RMK A01 T02640152  RH  053%=      5-min Rain = 0
KDVS 061510Z 18011KT 27/15 A3006 RMK A01 T02680153  RH  052%=      5-min Rain = 0
KDVS 061515Z 18013KT 27/15 A3006 RMK A01 T02740153  RH  050%=      5-min Rain = 0
KDVS 061520Z 18016KT 28/15 A3006 RMK A01 T02750152  RH  049%=      5-min Rain = 0
KDVS 061525Z 18014KT 28/15 A3006 RMK A01 T02760151  RH  049%=      5-min Rain = 0
KDVS 061530Z 18012G17KT 27/15 A3006 RMK A01 T02730151  RH  049%=      5-min Rain = 0
KDVS 061535Z 18012KT 28/15 A3006 RMK A01 T02750151  RH  049%=      5-min Rain = 0
KDVS 061540Z 18013KT 28/15 A3006 RMK A01 T02750151  RH  049%=      5-min Rain = 0
KDVS 061545Z 18011KT 28/15 A3006 RMK A01 T02790152  RH  048%=      5-min Rain = 0
KDVS 061550Z 19014KT 28/15 A3006 RMK A01 T02810151  RH  047%=      5-min Rain = 0
KDVS 061555Z 18013KT 28/15 A3006 RMK A01 T02830151  RH  047%=      5-min Rain = 0
KDVS 061600Z 19012G17KT 29/15 A3006 RMK A01 T02930153  RH  045%=      5-min Rain = 0
KDVS 061605Z 19014KT 29/15 A3006 RMK A01 T02920149  RH  043%=      5-min Rain = 0
KDVS 061610Z 19011KT 30/15 A3006 RMK A01 T02950150  RH  043%=      5-min Rain = 0
KDVS 061615Z 18012KT 30/15 A3006 RMK A01 T02980149  RH  042%=      5-min Rain = 0
KDVS 061620Z 19014KT 30/15 A3006 RMK A01 T03000147  RH  041%=      5-min Rain = 0
KDVS 061625Z 20013G18KT 30/15 A3006 RMK A01 T02990146  RH  041%=      5-min Rain = 0
KDVS 061630Z 19013KT 30/15 A3006 RMK A01 T03010146  RH  041%=      5-min Rain = 0
KDVS 061635Z 18011KT 30/15 A3006 RMK A01 T03020148  RH  041%=      5-min Rain = 0
KDVS 061640Z 19012KT 31/15 A3006 RMK A01 T03050146  RH  040%=      5-min Rain = 0
KDVS 061645Z 20011KT 31/15 A3006 RMK A01 T03080146  RH  039%=      5-min Rain = 0
KDVS 061650Z 19011KT 31/14 A3006 RMK A01 T03110144  RH  038%=      5-min Rain = 0
KDVS 061655Z 20012KT 31/14 A3006 RMK A01 T03110143  RH  037%=      5-min Rain = 0
KDVS 061700Z 19011KT 32/14 A3006 RMK A01 T03150143  RH  037%=      5-min Rain = 0
KDVS 061705Z 19009G14KT 32/14 A3006 RMK A01 T03150143  RH  037%=      5-min Rain = 0
KDVS 061710Z 18010KT 32/14 A3006 RMK A01 T03200140  RH  035%=      5-min Rain = 0
KDVS 061715Z 19009G14KT 32/14 A3006 RMK A01 T03240143  RH  035%=      5-min Rain = 0
KDVS 061720Z 20009KT 32/14 A3006 RMK A01 T03240141  RH  035%=      5-min Rain = 0
KDVS 061725Z 19010G17KT 33/14 A3005 RMK A01 T03260144  RH  035%=      5-min Rain = 0
KDVS 061730Z 19013KT 33/14 A3005 RMK A01 T03290141  RH  034%=      5-min Rain = 0
KDVS 061735Z 19009KT 33/14 A3005 RMK A01 T03290141  RH  033%=      5-min Rain = 0
KDVS 061740Z 19010KT 34/14 A3005 RMK A01 T03360142  RH  033%=      5-min Rain = 0
KDVS 061745Z 18012G18KT 33/14 A3005 RMK A01 T03340138  RH  032%=      5-min Rain = 0
KDVS 061750Z 19012G18KT 34/14 A3005 RMK A01 T03360136  RH  031%=      5-min Rain = 0
KDVS 061755Z 18012G19KT 34/13 A3005 RMK A01 T03420134  RH  030%=      5-min Rain = 0
KDVS 061800Z 18013G18KT 34/12 A3005 RMK A01 T03390124  RH  028%=      5-min Rain = 0
KDVS 061805Z 17012G19KT 34/13 A3005 RMK A01 T03420127  RH  028%=      5-min Rain = 0
KDVS 061810Z 19012G17KT 34/13 A3005 RMK A01 T03410128  RH  029%=      5-min Rain = 0
KDVS 061815Z 18012G17KT 34/13 A3004 RMK A01 T03430127  RH  028%=      5-min Rain = 0
KDVS 061820Z 18011G16KT 34/13 A3004 RMK A01 T03420127  RH  028%=      5-min Rain = 0
KDVS 061825Z 19011KT 34/13 A3004 RMK A01 T03410128  RH  029%=      5-min Rain = 0
KDVS 061830Z 17012G17KT 35/13 A3004 RMK A01 T03460128  RH  028%=      5-min Rain = 0
KDVS 061835Z 19013KT 35/13 A3004 RMK A01 T03530126  RH  027%=      5-min Rain = 0
KDVS 061840Z 20011KT 35/13 A3004 RMK A01 T03510126  RH  027%=      5-min Rain = 0
KDVS 061845Z 20010KT 35/13 A3004 RMK A01 T03450125  RH  028%=      5-min Rain = 0
KDVS 061850Z 19012G18KT 35/12 A3003 RMK A01 T03480124  RH  027%=      5-min Rain = 0
KDVS 061855Z 19010G16KT 36/12 A3003 RMK A01 T03550122  RH  025%=      5-min Rain = 0
KDVS 061900Z 20012G17KT 36/12 A3003 RMK A01 T03580122  RH  025%=      5-min Rain = 0
KDVS 061905Z 18012G18KT 36/12 A3003 RMK A01 T03610124  RH  025%=      5-min Rain = 0
KDVS 061910Z 20011G18KT 36/12 A3003 RMK A01 T03580122  RH  025%=      5-min Rain = 0
KDVS 061915Z 19008G14KT 37/12 A3002 RMK A01 T03660124  RH  024%=      5-min Rain = 0
KDVS 061920Z 21012KT 37/13 A3002 RMK A01 T03660125  RH  025%=      5-min Rain = 0
KDVS 061925Z 20010G18KT 36/12 A3002 RMK A01 T03620124  RH  025%=      5-min Rain = 0
KDVS 061930Z 19010G17KT 36/12 A3002 RMK A01 T03630123  RH  025%=      5-min Rain = 0
KDVS 061935Z 19012KT 37/12 A3002 RMK A01 T03670123  RH  024%=      5-min Rain = 0
KDVS 061940Z 20012G18KT 36/12 A3001 RMK A01 T03640121  RH  024%=      5-min Rain = 0
KDVS 061945Z 22012G20KT 36/12 A3001 RMK A01 T03600120  RH  025%=      5-min Rain = 0
KDVS 061950Z 20010G16KT 36/12 A3001 RMK A01 T03610123  RH  025%=      5-min Rain = 0
KDVS 061955Z 21012G17KT 36/12 A3001 RMK A01 T03640122  RH  024%=      5-min Rain = 0
KDVS 062000Z 22009G26KT 36/12 A3001 RMK A01 T03640124  RH  025%=      5-min Rain = 0
KDVS 062005Z 23011KT 36/12 A3001 RMK A01 T03600123  RH  025%=      5-min Rain = 0
KDVS 062010Z 22013KT 36/12 A3001 RMK A01 T03620117  RH  024%=      5-min Rain = 0
KDVS 062015Z 23010G15KT 36/11 A3001 RMK A01 T03630111  RH  023%=      5-min Rain = 0
KDVS 062020Z 23008G15KT 36/12 A30 RMK A01 T03640116  RH  023%=      5-min Rain = 0
KDVS 062025Z 25007G13KT 36/12 A30 RMK A01 T03640122  RH  024%=      5-min Rain = 0
KDVS 062030Z 22010G15KT 37/12 A30 RMK A01 T03660119  RH  024%=      5-min Rain = 0
KDVS 062035Z 20009KT 37/12 A30 RMK A01 T03660118  RH  023%=      5-min Rain = 0
KDVS 062040Z 25011G17KT 37/12 A30 RMK A01 T03650115  RH  023%=      5-min Rain = 0
KDVS 062045Z 25009G14KT 37/11 A2999 RMK A01 T03660111  RH  022%=      5-min Rain = 0
KDVS 062050Z 26005G13KT 37/11 A2999 RMK A01 T03650114  RH  023%=      5-min Rain = 0
KDVS 062055Z 23009G14KT 37/11 A2999 RMK A01 T03670111  RH  022%=      5-min Rain = 0
KDVS 062100Z 22009KT 37/12 A2999 RMK A01 T03660118  RH  023%=      5-min Rain = 0
KDVS 062105Z 22008G13KT 37/12 A2999 RMK A01 T03660115  RH  023%=      5-min Rain = 0
KDVS 062110Z 23005KT 36/12 A2998 RMK A01 T03630116  RH  023%=      5-min Rain = 0
KDVS 062115Z 26010G15KT 37/11 A2998 RMK A01 T03690109  RH  022%=      5-min Rain = 0
KDVS 062120Z 24009G14KT 37/11 A2998 RMK A01 T03710112  RH  022%=      5-min Rain = 0
KDVS 062125Z 21008KT 37/11 A2998 RMK A01 T03740110  RH  021%=      5-min Rain = 0
KDVS 062130Z 22006KT 37/11 A2998 RMK A01 T03710105  RH  021%=      5-min Rain = 0
KDVS 062135Z 22009G14KT 37/11 A2997 RMK A01 T03720109  RH  021%=      5-min Rain = 0
KDVS 062140Z 22007KT 37/11 A2997 RMK A01 T03690109  RH  022%=      5-min Rain = 0
KDVS 062145Z 24005KT 37/11 A2997 RMK A01 T03700110  RH  022%=      5-min Rain = 0
KDVS 062150Z 21007G13KT 37/11 A2996 RMK A01 T03720111  RH  022%=      5-min Rain = 0
KDVS 062155Z 21006KT 37/10 A2996 RMK A01 T03720103  RH  020%=      5-min Rain = 0
KDVS 062200Z 20006KT 37/11 A2996 RMK A01 T03740105  RH  020%=      5-min Rain = 0
KDVS 062205Z 24009KT 37/11 A2996 RMK A01 T03740106  RH  021%=      5-min Rain = 0
KDVS 062210Z 25007G12KT 37/11 A2996 RMK A01 T03720105  RH  021%=      5-min Rain = 0
KDVS 062215Z 27007KT 38/11 A2995 RMK A01 T03750105  RH  020%=      5-min Rain = 0
KDVS 062220Z 24005G10KT 37/11 A2995 RMK A01 T03740107  RH  021%=      5-min Rain = 0
KDVS 062225Z 27009KT 38/11 A2995 RMK A01 T03780111  RH  021%=      5-min Rain = 0
KDVS 062230Z 24006G11KT 37/11 A2995 RMK A01 T03740108  RH  021%=      5-min Rain = 0
KDVS 062235Z 28007KT 38/11 A2995 RMK A01 T03770108  RH  021%=      5-min Rain = 0
KDVS 062240Z 27003KT 38/11 A2995 RMK A01 T03770107  RH  020%=      5-min Rain = 0
KDVS 062245Z 16005G10KT 39/11 A2995 RMK A01 T03850106  RH  019%=      5-min Rain = 0
KDVS 062250Z 16008KT 38/11 A2995 RMK A01 T03840106  RH  020%=      5-min Rain = 0
KDVS 062255Z 21008G13KT 37/11 A2995 RMK A01 T03740107  RH  021%=      5-min Rain = 0
KDVS 062300Z 18013G20KT 36/11 A2995 RMK A01 T03590109  RH  023%=      5-min Rain = 0
KDVS 062305Z 16016G22KT 35/11 A2995 RMK A01 T03450107  RH  024%=      5-min Rain = 0
KDVS 062310Z 17019G25KT 34/11 A2995 RMK A01 T03360111  RH  026%=      5-min Rain = 0
KDVS 062315Z 17015G21KT 33/12 A2995 RMK A01 T03300118  RH  029%=      5-min Rain = 0
KDVS 062320Z 17015G20KT 33/13 A2995 RMK A01 T03260125  RH  031%=      5-min Rain = 0
KDVS 062325Z 17016G24KT 32/13 A2996 RMK A01 T03190128  RH  032%=      5-min Rain = 0
KDVS 062330Z 18022G28KT 31/14 A2997 RMK A01 T03130137  RH  036%=      5-min Rain = 0
KDVS 062335Z 18021G27KT 29/15 A2998 RMK A01 T02940151  RH  044%=      5-min Rain = 0
KDVS 062340Z 20019G25KT 25/18 A2998 RMK A01 T02540175  RH  065%=      5-min Rain = 0.03
KDVS 062345Z 21017G28KT 24/17 A3001 RMK A01 T02430173  RH  068%=      5-min Rain = 0.1
KDVS 062350Z 18014G24KT 24/16 A3002 RMK A01 T02420161  RH  064%=      5-min Rain = 0.08
KDVS 062355Z 32012G20KT 24/17 A3003 RMK A01 T02400173  RH  070%=      5-min Rain = 0.09
KDVS 070000Z 35010KT 23/18 A3004 RMK A01 T02290179  RH  077%=      5-min Rain = 0
KDVS 070005Z 02009KT 23/18 A3003 RMK A01 T02340181  RH  076%=      5-min Rain = 0
KDVS 070010Z 06008KT 23/18 A3003 RMK A01 T02330178  RH  075%=      5-min Rain = 0
KDVS 070015Z 08009KT 23/18 A3002 RMK A01 T02330182  RH  077%=      5-min Rain = 0
KDVS 070020Z 10009KT 24/18 A3003 RMK A01 T02410179  RH  072%=      5-min Rain = 0.01
KDVS 070025Z 11009KT 25/18 A3003 RMK A01 T02460181  RH  071%=      5-min Rain = 0
KDVS 070030Z 09010KT 25/18 A3003 RMK A01 T02480183  RH  071%=      5-min Rain = 0
KDVS 070035Z 08010KT 24/18 A3002 RMK A01 T02440183  RH  073%=      5-min Rain = 0
KDVS 070040Z 08011KT 25/18 A3002 RMK A01 T02490180  RH  069%=      5-min Rain = 0
KDVS 070045Z 10009KT 25/18 A3002 RMK A01 T02520179  RH  067%=      5-min Rain = 0
KDVS 070050Z 10011KT 25/18 A3002 RMK A01 T02530175  RH  065%=      5-min Rain = 0
KDVS 070055Z 10010KT 25/18 A3002 RMK A01 T02530178  RH  066%=      5-min Rain = 0
KDVS 070100Z 11012KT 25/18 A3002 RMK A01 T02540177  RH  066%=      5-min Rain = 0
KDVS 070105Z 11012KT 26/17 A3002 RMK A01 T02580171  RH  062%=      5-min Rain = 0
KDVS 070110Z 10012G17KT 26/17 A3002 RMK A01 T02560173  RH  063%=      5-min Rain = 0
KDVS 070115Z 10014G19KT 26/16 A3002 RMK A01 T02580164  RH  059%=      5-min Rain = 0
KDVS 070120Z 11014KT 26/16 A3002 RMK A01 T02610157  RH  055%=      5-min Rain = 0
KDVS 070125Z 11014KT 26/16 A3002 RMK A01 T02600157  RH  056%=      5-min Rain = 0
KDVS 070130Z 12014KT 26/16 A3002 RMK A01 T02580158  RH  056%=      5-min Rain = 0
KDVS 070135Z 11015G20KT 26/15 A3002 RMK A01 T02610151  RH  053%=      5-min Rain = 0
KDVS 070140Z 11013KT 26/15 A3002 RMK A01 T02610150  RH  053%=      5-min Rain = 0
KDVS 070145Z 11013KT 26/15 A3002 RMK A01 T02610148  RH  052%=      5-min Rain = 0
KDVS 070150Z 11012KT 26/15 A3002 RMK A01 T02600147  RH  052%=      5-min Rain = 0
KDVS 070155Z 12012KT 26/15 A3002 RMK A01 T02600148  RH  053%=      5-min Rain = 0
KDVS 070200Z 12011KT 26/15 A3002 RMK A01 T02610147  RH  052%=      5-min Rain = 0
KDVS 070205Z 11010KT 26/15 A3002 RMK A01 T02590149  RH  053%=      5-min Rain = 0
KDVS 070210Z 11010KT 26/15 A3002 RMK A01 T02600147  RH  052%=      5-min Rain = 0
KDVS 070215Z 12009KT 26/15 A3002 RMK A01 T02610146  RH  051%=      5-min Rain = 0
KDVS 070220Z 11010KT 26/15 A3002 RMK A01 T02620146  RH  051%=      5-min Rain = 0
KDVS 070225Z 11009KT 26/15 A3002 RMK A01 T02620147  RH  051%=      5-min Rain = 0
KDVS 070230Z 11009KT 26/15 A3002 RMK A01 T02620146  RH  051%=      5-min Rain = 0
KDVS 070235Z 11010KT 26/15 A3002 RMK A01 T02610145  RH  051%=      5-min Rain = 0
KDVS 070240Z 10010KT 26/15 A3002 RMK A01 T02600146  RH  052%=      5-min Rain = 0
KDVS 070245Z 11008KT 26/15 A3002 RMK A01 T02570149  RH  054%=      5-min Rain = 0
KDVS 070250Z 10008KT 25/15 A3002 RMK A01 T02540150  RH  055%=      5-min Rain = 0
KDVS 070255Z 11007KT 25/15 A3002 RMK A01 T02520150  RH  056%=      5-min Rain = 0
KDVS 070300Z 12007KT 25/15 A3002 RMK A01 T02510152  RH  056%=      5-min Rain = 0
KDVS 070305Z 11007KT 25/15 A3002 RMK A01 T02500152  RH  057%=      5-min Rain = 0
KDVS 070310Z 11007KT 25/15 A3002 RMK A01 T02490154  RH  058%=      5-min Rain = 0
KDVS 070315Z 11006KT 25/16 A3002 RMK A01 T02470157  RH  060%=      5-min Rain = 0
KDVS 070320Z 11007KT 25/16 A3002 RMK A01 T02470156  RH  059%=      5-min Rain = 0
KDVS 070325Z 12007KT 25/16 A3002 RMK A01 T02470156  RH  060%=      5-min Rain = 0
KDVS 070330Z 12007KT 25/16 A3002 RMK A01 T02470157  RH  060%=      5-min Rain = 0
KDVS 070335Z 12009KT 25/15 A3002 RMK A01 T02500151  RH  056%=      5-min Rain = 0
KDVS 070340Z 12009KT 25/15 A3002 RMK A01 T02520148  RH  055%=      5-min Rain = 0
KDVS 070345Z 12007KT 25/15 A3002 RMK A01 T02510150  RH  056%=      5-min Rain = 0
KDVS 070350Z 13007KT 25/15 A3002 RMK A01 T02490150  RH  057%=      5-min Rain = 0
KDVS 070355Z 13007KT 25/15 A3002 RMK A01 T02470152  RH  058%=      5-min Rain = 0
KDVS 070400Z 13006KT 24/15 A3002 RMK A01 T02440154  RH  060%=      5-min Rain = 0
KDVS 070405Z 13006KT 24/16 A3002 RMK A01 T02410157  RH  062%=      5-min Rain = 0
KDVS 070410Z 13006KT 24/16 A3002 RMK A01 T02380159  RH  064%=      5-min Rain = 0
KDVS 070415Z 13006KT 24/16 A3002 RMK A01 T02370158  RH  064%=      5-min Rain = 0
KDVS 070420Z 13006KT 24/16 A3002 RMK A01 T02360158  RH  065%=      5-min Rain = 0
KDVS 070425Z 13006KT 24/16 A3002 RMK A01 T02350159  RH  065%=      5-min Rain = 0
KDVS 070430Z 13006KT 23/16 A3002 RMK A01 T02340159  RH  066%=      5-min Rain = 0
KDVS 070435Z 13006KT 23/16 A3002 RMK A01 T02320161  RH  067%=      5-min Rain = 0
KDVS 070440Z 14006KT 23/16 A3002 RMK A01 T02310162  RH  068%=      5-min Rain = 0
KDVS 070445Z 14006KT 23/16 A3002 RMK A01 T02310162  RH  069%=      5-min Rain = 0
KDVS 070450Z 14006KT 23/16 A3003 RMK A01 T02290162  RH  069%=      5-min Rain = 0
KDVS 070455Z 14006KT 23/16 A3003 RMK A01 T02290163  RH  070%=      5-min Rain = 0

Page generated in 0.0448 seconds.